createdAt,value
2018-06-21T00:00:30.232Z,101132.00
2018-06-21T00:05:23.694Z,101132.00
2018-06-21T00:10:17.127Z,101138.00
2018-06-21T00:15:10.502Z,101137.00
2018-06-21T00:20:03.955Z,101135.00
2018-06-21T00:24:57.428Z,101129.00
2018-06-21T00:29:50.793Z,101132.00
2018-06-21T00:34:44.148Z,101125.00
2018-06-21T00:39:37.500Z,101118.00
2018-06-21T00:44:30.822Z,101122.00
2018-06-21T00:49:24.160Z,101114.00
2018-06-21T00:54:17.468Z,101109.00
2018-06-21T00:59:10.699Z,101105.00
2018-06-21T01:04:04.175Z,101097.00
2018-06-21T01:08:57.516Z,101094.00
2018-06-21T01:13:50.840Z,101092.00
2018-06-21T01:18:44.190Z,101093.00
2018-06-21T01:23:37.535Z,101086.00
2018-06-21T01:28:30.951Z,101072.00
2018-06-21T01:33:24.309Z,101064.00
2018-06-21T01:38:17.725Z,101067.00
2018-06-21T01:43:11.030Z,101068.00
2018-06-21T01:48:04.490Z,101060.00
2018-06-21T01:52:57.817Z,101059.00
2018-06-21T01:57:51.136Z,101052.00
2018-06-21T02:02:44.497Z,101041.00
2018-06-21T02:07:38.214Z,101037.00
2018-06-21T02:12:31.487Z,101035.00
2018-06-21T02:17:24.860Z,101025.00
2018-06-21T02:22:18.246Z,101025.00
2018-06-21T02:27:11.564Z,101018.00
2018-06-21T02:32:04.896Z,101007.00
2018-06-21T02:36:58.252Z,100996.00
2018-06-21T02:41:51.602Z,100986.00
2018-06-21T02:46:44.916Z,100992.00
2018-06-21T02:51:38.294Z,100997.00
2018-06-21T02:56:31.712Z,100994.00
2018-06-21T03:01:25.088Z,100993.00
2018-06-21T03:06:18.481Z,100985.00
2018-06-21T03:11:11.824Z,100986.00
2018-06-21T03:16:05.052Z,100984.00
2018-06-21T03:20:58.366Z,100990.00
2018-06-21T03:25:51.670Z,100997.00
2018-06-21T03:30:44.998Z,100997.00
2018-06-21T03:35:38.350Z,101003.00
2018-06-21T03:40:31.684Z,101006.00
2018-06-21T03:45:24.947Z,101006.00
2018-06-21T03:50:18.357Z,101001.00
2018-06-21T03:55:11.672Z,101007.00
2018-06-21T04:00:06.458Z,100997.00
2018-06-21T04:04:59.784Z,100987.00
2018-06-21T04:09:53.145Z,100984.00
2018-06-21T04:14:46.466Z,100968.00
2018-06-21T04:19:39.788Z,100967.00
2018-06-21T04:24:33.138Z,100970.00
2018-06-21T04:29:26.463Z,100966.00
2018-06-21T04:34:19.936Z,100983.00
2018-06-21T04:39:13.271Z,100975.00
2018-06-21T04:44:06.636Z,100978.00
2018-06-21T04:48:59.953Z,100973.00
2018-06-21T04:53:53.257Z,100976.00
2018-06-21T04:58:46.490Z,100982.00
2018-06-21T05:03:39.828Z,100979.00
2018-06-21T05:08:33.237Z,100976.00
2018-06-21T05:13:26.549Z,100971.00
2018-06-21T05:18:19.886Z,100963.00
2018-06-21T05:23:13.218Z,100963.00
2018-06-21T05:28:06.514Z,100951.00
2018-06-21T05:32:59.806Z,100959.00
2018-06-21T05:37:53.065Z,100967.00
2018-06-21T05:42:46.227Z,100972.00
2018-06-21T05:47:39.500Z,100973.00
2018-06-21T05:52:32.671Z,100987.00
2018-06-21T05:57:25.845Z,100990.00
2018-06-21T06:02:19.007Z,100992.00
2018-06-21T06:07:12.294Z,100993.00
2018-06-21T06:12:05.584Z,101008.00
2018-06-21T06:16:58.827Z,101006.00
2018-06-21T06:21:52.321Z,101013.00
2018-06-21T06:26:45.505Z,101002.00
2018-06-21T06:31:38.957Z,101021.00
2018-06-21T06:36:32.269Z,101022.00
2018-06-21T06:41:25.515Z,101024.00
2018-06-21T06:46:18.785Z,101034.00
2018-06-21T06:51:12.095Z,101044.00
2018-06-21T06:56:05.442Z,101044.00
2018-06-21T07:00:58.886Z,101044.00
2018-06-21T07:05:52.196Z,101052.00
2018-06-21T07:10:45.456Z,101051.00
2018-06-21T07:15:38.884Z,101057.00
2018-06-21T07:20:32.352Z,101062.00
2018-06-21T07:25:25.489Z,101073.00
2018-06-21T07:30:18.775Z,101071.00
2018-06-21T07:35:12.180Z,101081.00
2018-06-21T07:40:05.419Z,101088.00
2018-06-21T07:44:58.681Z,101095.00
2018-06-21T07:49:51.882Z,101102.00
2018-06-21T07:54:45.029Z,101104.00
2018-06-21T07:59:38.303Z,101105.00
2018-06-21T08:04:31.590Z,101112.00
2018-06-21T08:09:24.878Z,101113.00
2018-06-21T08:14:18.110Z,101118.00
2018-06-21T08:19:11.400Z,101123.00
2018-06-21T08:24:04.827Z,101125.00
2018-06-21T08:28:58.207Z,101140.00
2018-06-21T08:33:51.348Z,101145.00
2018-06-21T08:38:44.623Z,101153.00
2018-06-21T08:43:38.025Z,101163.00
2018-06-21T08:48:31.966Z,101185.00
2018-06-21T08:53:25.238Z,101192.00
2018-06-21T08:58:18.507Z,101194.00
2018-06-21T09:03:12.334Z,101196.00
2018-06-21T09:08:05.932Z,101209.00
2018-06-21T09:12:59.081Z,101216.00
2018-06-21T09:17:52.339Z,101221.00
2018-06-21T09:22:45.583Z,101234.00
2018-06-21T09:27:39.906Z,101228.00
2018-06-21T09:32:33.768Z,101220.00
2018-06-21T09:37:32.649Z,101226.00
2018-06-21T09:42:31.408Z,101234.00
2018-06-21T09:47:30.708Z,101249.00
2018-06-21T09:52:24.016Z,101255.00
2018-06-21T09:57:17.268Z,101259.00
2018-06-21T10:02:10.520Z,101235.00
2018-06-21T10:07:03.951Z,101254.00
2018-06-21T10:11:57.237Z,101256.00
2018-06-21T10:16:50.635Z,101257.00
2018-06-21T10:21:43.876Z,101267.00
2018-06-21T10:26:37.261Z,101270.00
2018-06-21T10:31:30.563Z,101278.00
2018-06-21T10:36:23.950Z,101280.00
2018-06-21T10:41:17.258Z,101294.00
2018-06-21T10:46:11.441Z,101327.00
2018-06-21T10:51:04.694Z,101318.00
2018-06-21T10:55:58.010Z,101330.00
2018-06-21T11:00:51.286Z,101323.00
2018-06-21T11:05:44.626Z,101332.00
2018-06-21T11:10:37.867Z,101331.00
2018-06-21T11:15:31.019Z,101338.00
2018-06-21T11:20:24.339Z,101351.00
2018-06-21T11:25:18.056Z,101351.00
2018-06-21T11:30:11.361Z,101351.00
2018-06-21T11:35:04.633Z,101357.00
2018-06-21T11:39:57.963Z,101366.00
2018-06-21T11:44:51.557Z,101359.00
2018-06-21T11:49:44.917Z,101378.00
2018-06-21T11:54:38.238Z,101374.00
2018-06-21T11:59:31.545Z,101378.00
2018-06-21T12:04:25.085Z,101383.00
2018-06-21T12:09:18.340Z,101382.00
2018-06-21T12:14:11.674Z,101383.00
2018-06-21T12:19:05.675Z,101397.00
2018-06-21T12:23:58.867Z,101391.00
2018-06-21T12:28:52.100Z,101397.00
2018-06-21T12:33:45.383Z,101412.00
2018-06-21T12:38:38.651Z,101410.00
2018-06-21T12:43:31.949Z,101420.00
2018-06-21T12:48:25.227Z,101421.00
2018-06-21T12:53:18.383Z,101420.00
2018-06-21T12:58:11.651Z,101432.00
2018-06-21T13:03:04.928Z,101427.00
2018-06-21T13:07:58.198Z,101440.00
2018-06-21T13:13:09.641Z,101436.00
2018-06-21T13:18:03.010Z,101443.00
2018-06-21T13:22:56.262Z,101458.00
2018-06-21T13:27:49.578Z,101468.00
2018-06-21T13:32:42.876Z,101476.00
2018-06-21T13:37:36.171Z,101479.00
2018-06-21T13:42:29.451Z,101475.00
2018-06-21T13:47:22.692Z,101488.00
2018-06-21T13:52:16.098Z,101492.00
2018-06-21T13:57:09.364Z,101483.00
2018-06-21T14:02:02.618Z,101503.00
2018-06-21T14:06:55.906Z,101512.00
2018-06-21T14:11:49.156Z,101524.00
2018-06-21T14:16:42.396Z,101518.00
2018-06-21T14:21:35.750Z,101539.00
2018-06-21T14:26:28.978Z,101546.00
2018-06-21T14:31:23.811Z,101535.00
2018-06-21T14:36:17.118Z,101543.00
2018-06-21T14:41:10.436Z,101547.00
2018-06-21T14:46:03.692Z,101535.00
2018-06-21T14:50:57.099Z,101561.00
2018-06-21T14:55:50.436Z,101543.00
2018-06-21T15:00:43.643Z,101570.00
2018-06-21T15:05:36.891Z,101581.00
2018-06-21T15:10:30.709Z,101580.00
2018-06-21T15:15:24.052Z,101599.00
2018-06-21T15:20:17.489Z,101588.00
2018-06-21T15:25:10.774Z,101585.00
2018-06-21T15:30:04.169Z,101601.00
2018-06-21T15:34:57.491Z,101601.00
2018-06-21T15:39:51.593Z,101599.00
2018-06-21T15:44:44.847Z,101607.00
2018-06-21T15:49:38.092Z,101627.00
2018-06-21T15:54:31.416Z,101626.00
2018-06-21T15:59:24.695Z,101625.00
2018-06-21T16:04:17.939Z,101632.00
2018-06-21T16:09:11.112Z,101628.00
2018-06-21T16:14:04.254Z,101651.00
2018-06-21T16:18:57.496Z,101662.00
2018-06-21T16:23:50.788Z,101671.00
2018-06-21T16:28:44.097Z,101679.00
2018-06-21T16:33:37.283Z,101679.00
2018-06-21T16:38:30.542Z,101672.00
2018-06-21T16:43:23.782Z,101685.00
2018-06-21T16:48:17.079Z,101676.00
2018-06-21T16:53:10.351Z,101676.00
2018-06-21T16:58:03.601Z,101686.00
2018-06-21T17:02:56.851Z,101685.00
2018-06-21T17:07:50.113Z,101681.00
2018-06-21T17:12:43.419Z,101693.00
2018-06-21T17:17:36.855Z,101696.00
2018-06-21T17:22:30.607Z,101692.00
2018-06-21T17:27:23.869Z,101697.00
2018-06-21T17:32:17.175Z,101702.00
2018-06-21T17:37:10.437Z,101711.00
2018-06-21T17:42:03.721Z,101703.00
2018-06-21T17:46:57.082Z,101709.00
2018-06-21T17:51:50.356Z,101715.00
2018-06-21T17:56:43.670Z,101722.00
2018-06-21T18:01:36.841Z,101731.00
2018-06-21T18:06:30.032Z,101734.00
2018-06-21T18:11:23.580Z,101734.00
2018-06-21T18:16:16.878Z,101738.00
2018-06-21T18:21:10.060Z,101738.00
2018-06-21T18:26:03.375Z,101743.00
2018-06-21T18:30:56.537Z,101739.00
2018-06-21T18:35:49.850Z,101744.00
2018-06-21T18:40:43.162Z,101745.00
2018-06-21T18:45:36.420Z,101745.00
2018-06-21T18:50:29.741Z,101749.00
2018-06-21T18:55:23.022Z,101760.00
2018-06-21T19:00:16.298Z,101765.00
2018-06-21T19:05:09.639Z,101768.00
2018-06-21T19:10:08.557Z,101775.00
2018-06-21T19:15:02.052Z,101791.00
2018-06-21T19:19:55.346Z,101782.00
2018-06-21T19:24:48.624Z,101787.00
2018-06-21T19:29:41.886Z,101796.00
2018-06-21T19:34:35.134Z,101805.00
2018-06-21T19:39:28.473Z,101810.00
2018-06-21T19:44:21.666Z,101809.00
2018-06-21T19:49:14.856Z,101812.00
2018-06-21T19:54:08.401Z,101818.00
2018-06-21T19:59:01.724Z,101811.00
2018-06-21T20:03:55.172Z,101843.00
2018-06-21T20:08:48.358Z,101848.00
2018-06-21T20:13:49.255Z,101858.00
2018-06-21T20:18:42.497Z,101867.00
2018-06-21T20:23:35.920Z,101867.00
2018-06-21T20:28:29.201Z,101876.00
2018-06-21T20:33:22.535Z,101878.00
2018-06-21T20:38:15.939Z,101884.00
2018-06-21T20:43:09.225Z,101888.00
2018-06-21T20:48:02.495Z,101889.00
2018-06-21T20:52:55.731Z,101896.00
2018-06-21T20:57:49.102Z,101894.00
2018-06-21T21:02:42.371Z,101895.00
2018-06-21T21:07:35.726Z,101907.00
2018-06-21T21:12:29.140Z,101907.00
2018-06-21T21:17:22.432Z,101907.00
2018-06-21T21:22:15.716Z,101903.00
2018-06-21T21:27:09.006Z,101911.00
2018-06-21T21:32:02.244Z,101921.00
2018-06-21T21:36:55.516Z,101924.00
2018-06-21T21:41:48.755Z,101931.00
2018-06-21T21:46:41.991Z,101931.00
2018-06-21T21:51:35.226Z,101934.00
2018-06-21T21:56:28.574Z,101948.00
2018-06-21T22:01:21.877Z,101943.00
2018-06-21T22:06:15.145Z,101943.00
2018-06-21T22:11:08.453Z,101942.00
2018-06-21T22:16:01.828Z,101938.00
2018-06-21T22:20:55.310Z,101936.00
2018-06-21T22:25:48.627Z,101936.00
2018-06-21T22:30:41.902Z,101930.00
2018-06-21T22:35:35.110Z,101939.00
2018-06-21T22:40:28.394Z,101938.00
2018-06-21T22:45:21.665Z,101933.00
2018-06-21T22:50:14.916Z,101930.00
2018-06-21T22:55:08.150Z,101936.00
2018-06-21T23:00:01.607Z,101930.00
2018-06-21T23:04:54.941Z,101935.00
2018-06-21T23:09:48.134Z,101931.00
2018-06-21T23:14:41.398Z,101935.00
2018-06-21T23:19:34.576Z,101929.00
2018-06-21T23:24:27.739Z,101937.00
2018-06-21T23:29:20.950Z,101935.00
2018-06-21T23:34:14.223Z,101944.00
2018-06-21T23:39:09.627Z,101936.00
2018-06-21T23:44:03.032Z,101939.00
2018-06-21T23:48:56.363Z,101941.00
2018-06-21T23:53:49.668Z,101938.00
2018-06-21T23:58:42.955Z,101933.00
